Time;durP1;ratioP1;P1;durP2;ratioP2;P2;SDS_P1;SDS_P2;PMS_P1;PMS_P2;Temp;Humidity;BMP_temperature;BMP_pressure;BME280_temperature;BME280_humidity;BME280_pressure;Samples;Min_cycle;Max_cycle;Signal;HPM_P1;HPM_P2
2023/07/29 00:01:08;;;;;;;6.25;4.32;;;;;;;;;;5052158;28;20123;-67
2023/07/29 00:03:34;;;;;;;6.30;4.47;;;;;;;;;;5051863;28;20033;-67
2023/07/29 00:06:01;;;;;;;5.20;4.10;;;;;;;;;;5052094;28;20036;-66
2023/07/29 00:08:27;;;;;;;6.13;4.55;;;;;;;;;;5052033;28;20021;-66
2023/07/29 00:10:53;;;;;;;6.05;4.32;;;;;;;;;;5052058;28;20060;-66
2023/07/29 00:13:23;;;;;;;6.20;4.60;;;;;;;;;;5051951;28;20483;-66
2023/07/29 00:15:49;;;;;;;6.70;4.20;;;;;;;;;;5051634;28;20033;-66
2023/07/29 00:18:15;;;;;;;6.30;4.30;;;;;;;;;;5051873;28;20029;-66
2023/07/29 00:20:42;;;;;;;5.70;4.03;;;;;;;;;;5051555;28;20095;-66
2023/07/29 00:23:08;;;;;;;7.00;4.40;;;;;;;;;;5051814;28;20074;-67
2023/07/29 00:25:35;;;;;;;6.07;4.57;;;;;;;;;;5051655;28;20029;-66
2023/07/29 00:28:02;;;;;;;5.30;4.50;;;;;;;;;;5051714;28;20021;-66
2023/07/29 00:30:29;;;;;;;5.57;4.57;;;;;;;;;;5051811;28;20029;-66
2023/07/29 00:32:55;;;;;;;5.53;4.30;;;;;;;;;;5051673;28;20032;-67
2023/07/29 00:35:24;;;;;;;5.82;4.13;;;;;;;;;;5051341;28;20114;-66
2023/07/29 00:37:50;;;;;;;4.97;4.00;;;;;;;;;;5034531;28;20025;-66
2023/07/29 00:40:20;;;;;;;6.47;4.47;;;;;;;;;;5051525;28;20430;-66
2023/07/29 00:42:46;;;;;;;5.40;4.05;;;;;;;;;;5051672;28;20025;-66
2023/07/29 00:45:13;;;;;;;5.30;4.22;;;;;;;;;;5051684;28;20052;-66
2023/07/29 00:47:40;;;;;;;5.22;4.00;;;;;;;;;;5051573;28;20067;-66
2023/07/29 00:50:07;;;;;;;6.32;4.15;;;;;;;;;;5051671;28;20372;-66
2023/07/29 00:52:33;;;;;;;6.50;4.55;;;;;;;;;;5051601;28;20036;-66
2023/07/29 00:55:00;;;;;;;6.90;4.63;;;;;;;;;;5051599;28;20021;-66
2023/07/29 00:57:28;;;;;;;5.50;4.10;;;;;;;;;;5051539;28;20029;-66
2023/07/29 00:59:57;;;;;;;7.07;4.50;;;;;;;;;;5050832;28;20033;-67
2023/07/29 01:02:24;;;;;;;7.95;4.75;;;;;;;;;;5051430;28;20021;-66
2023/07/29 01:04:53;;;;;;;6.65;4.28;;;;;;;;;;5051552;28;20387;-66
2023/07/29 01:07:24;;;;;;;5.90;4.20;;;;;;;;;;5051352;28;20375;-67
2023/07/29 01:12:49;;;;;;;5.90;4.10;;;;;;;;;;5151040;27;20288;-68
2023/07/29 01:15:20;;;;;;;5.57;4.22;;;;;;;;;;5129311;28;20389;-68
2023/07/29 01:17:55;;;;;;;4.85;3.70;;;;;;;;;;5130233;28;20023;-68
2023/07/29 01:20:22;;;;;;;5.13;4.03;;;;;;;;;;5130349;28;20023;-68
2023/07/29 01:22:48;;;;;;;6.97;4.40;;;;;;;;;;5130342;27;20099;-67
2023/07/29 01:25:15;;;;;;;5.57;3.80;;;;;;;;;;5130205;28;20047;-67
2023/07/29 01:27:46;;;;;;;5.15;4.05;;;;;;;;;;5130133;27;20027;-67
2023/07/29 01:30:13;;;;;;;6.03;4.43;;;;;;;;;;5130019;28;20019;-68
2023/07/29 01:32:59;;;;;;;5.40;4.10;;;;;;;;;;5129949;28;20027;-68
2023/07/29 01:35:29;;;;;;;6.35;4.18;;;;;;;;;;5128852;28;20042;-68
2023/07/29 01:37:58;;;;;;;5.30;4.00;;;;;;;;;;5129928;27;20016;-68
2023/07/29 01:40:27;;;;;;;6.78;3.90;;;;;;;;;;5129953;28;20106;-67
2023/07/29 01:42:53;;;;;;;5.75;4.20;;;;;;;;;;5129944;27;20023;-68
2023/07/29 01:45:23;;;;;;;5.95;4.10;;;;;;;;;;5129792;27;20104;-68
2023/07/29 01:47:49;;;;;;;6.50;4.22;;;;;;;;;;5129890;27;20596;-68
2023/07/29 01:50:16;;;;;;;4.57;3.90;;;;;;;;;;5129563;28;20031;-68
2023/07/29 01:52:42;;;;;;;5.82;4.15;;;;;;;;;;5129685;28;20023;-68
2023/07/29 01:55:09;;;;;;;5.80;3.90;;;;;;;;;;5129549;28;20088;-67
2023/07/29 01:57:35;;;;;;;6.63;4.20;;;;;;;;;;5129688;28;20019;-68
2023/07/29 02:00:03;;;;;;;5.57;4.00;;;;;;;;;;5129684;28;20026;-68
2023/07/29 02:02:30;;;;;;;5.03;3.85;;;;;;;;;;5129538;27;20384;-68
2023/07/29 02:04:56;;;;;;;7.15;4.15;;;;;;;;;;5129378;27;20350;-68
2023/07/29 02:07:23;;;;;;;6.43;4.00;;;;;;;;;;5129415;28;20026;-68
2023/07/29 02:09:49;;;;;;;5.22;3.85;;;;;;;;;;5129271;28;20535;-68
2023/07/29 02:12:15;;;;;;;5.25;4.07;;;;;;;;;;5128975;27;20055;-67
2023/07/29 02:14:42;;;;;;;4.38;3.58;;;;;;;;;;5129553;28;20493;-68
2023/07/29 02:17:08;;;;;;;5.63;4.25;;;;;;;;;;5129047;28;20055;-67
2023/07/29 02:19:35;;;;;;;5.32;4.10;;;;;;;;;;5128918;28;20427;-67
2023/07/29 02:22:02;;;;;;;6.07;3.85;;;;;;;;;;5125765;27;20537;-68
2023/07/29 02:24:29;;;;;;;5.90;3.85;;;;;;;;;;5115628;28;20038;-67
2023/07/29 02:26:55;;;;;;;5.13;3.83;;;;;;;;;;5115292;28;20488;-68
2023/07/29 02:29:22;;;;;;;5.13;3.88;;;;;;;;;;5115145;28;20055;-68
2023/07/29 02:31:48;;;;;;;5.68;4.10;;;;;;;;;;5115137;28;20084;-68
2023/07/29 02:34:14;;;;;;;6.00;4.10;;;;;;;;;;5115265;28;20016;-68
2023/07/29 02:36:41;;;;;;;5.10;3.97;;;;;;;;;;5114953;28;20020;-68
2023/07/29 02:39:07;;;;;;;5.13;3.90;;;;;;;;;;5115229;28;20023;-68
2023/07/29 02:41:34;;;;;;;4.50;3.67;;;;;;;;;;5114994;28;20063;-68
2023/07/29 02:44:00;;;;;;;5.43;4.20;;;;;;;;;;5114980;28;20038;-68
2023/07/29 02:46:26;;;;;;;4.85;3.97;;;;;;;;;;5115227;28;20035;-68
2023/07/29 02:48:53;;;;;;;5.25;3.63;;;;;;;;;;5114929;28;20430;-68
2023/07/29 02:51:19;;;;;;;5.75;4.10;;;;;;;;;;5115103;28;20139;-68
2023/07/29 02:53:45;;;;;;;5.35;4.05;;;;;;;;;;5115542;28;20032;-68
2023/07/29 02:56:14;;;;;;;6.05;4.28;;;;;;;;;;5114872;28;20023;-67
2023/07/29 02:58:41;;;;;;;6.57;4.13;;;;;;;;;;5114885;28;20027;-68
2023/07/29 03:01:07;;;;;;;4.95;3.95;;;;;;;;;;5115018;28;20027;-69
2023/07/29 03:03:34;;;;;;;5.85;4.10;;;;;;;;;;5115065;28;20077;-68
2023/07/29 03:06:05;;;;;;;4.93;3.80;;;;;;;;;;5114762;28;20035;-68
2023/07/29 03:08:31;;;;;;;5.63;4.05;;;;;;;;;;5114447;28;20028;-68
2023/07/29 03:10:58;;;;;;;5.68;4.22;;;;;;;;;;5114214;28;20413;-67
2023/07/29 03:13:25;;;;;;;4.88;3.97;;;;;;;;;;5114429;28;20065;-68
2023/07/29 03:15:52;;;;;;;6.07;4.10;;;;;;;;;;5114367;28;20020;-67
2023/07/29 03:18:18;;;;;;;5.60;3.80;;;;;;;;;;5114284;28;20024;-68
2023/07/29 03:20:45;;;;;;;5.30;4.25;;;;;;;;;;5114486;28;20038;-68
2023/07/29 03:23:11;;;;;;;6.65;4.45;;;;;;;;;;5114224;28;20101;-68
2023/07/29 03:25:37;;;;;;;5.57;4.30;;;;;;;;;;5114318;28;20027;-68
2023/07/29 03:28:04;;;;;;;5.47;3.95;;;;;;;;;;5114341;28;20134;-68
2023/07/29 03:30:30;;;;;;;6.22;3.97;;;;;;;;;;5113995;28;20693;-68
2023/07/29 03:32:56;;;;;;;6.35;4.03;;;;;;;;;;5114131;28;20031;-68
2023/07/29 03:35:23;;;;;;;5.72;3.92;;;;;;;;;;5113079;28;20076;-68
2023/07/29 03:37:49;;;;;;;6.43;4.28;;;;;;;;;;5113762;28;20019;-68
2023/07/29 03:40:15;;;;;;;6.10;4.22;;;;;;;;;;5114034;28;20090;-68
2023/07/29 03:42:42;;;;;;;7.32;4.25;;;;;;;;;;5113822;28;20023;-68
2023/07/29 03:45:11;;;;;;;5.93;4.10;;;;;;;;;;5113892;28;20031;-68
2023/07/29 03:47:38;;;;;;;4.63;3.83;;;;;;;;;;5113664;28;20020;-68
2023/07/29 03:50:04;;;;;;;5.45;4.00;;;;;;;;;;5113534;28;20028;-68
2023/07/29 03:52:30;;;;;;;5.32;4.15;;;;;;;;;;5113648;28;20035;-68
2023/07/29 03:54:57;;;;;;;5.80;4.18;;;;;;;;;;5113474;28;20023;-68
2023/07/29 03:57:23;;;;;;;6.70;3.97;;;;;;;;;;5113375;28;20024;-68
2023/07/29 03:59:49;;;;;;;5.78;4.00;;;;;;;;;;5113552;28;20024;-68
2023/07/29 04:02:19;;;;;;;5.57;3.83;;;;;;;;;;5113421;28;20027;-68
2023/07/29 04:04:48;;;;;;;5.63;3.70;;;;;;;;;;5113266;28;20111;-67
2023/07/29 04:07:14;;;;;;;6.03;3.88;;;;;;;;;;5113167;28;20027;-67
2023/07/29 04:09:43;;;;;;;7.00;4.25;;;;;;;;;;5113124;28;20031;-68
2023/07/29 04:12:09;;;;;;;6.90;4.10;;;;;;;;;;5113059;28;20051;-68
2023/07/29 04:14:36;;;;;;;6.85;4.03;;;;;;;;;;5113507;28;20418;-68
2023/07/29 04:17:02;;;;;;;4.60;3.70;;;;;;;;;;5113260;28;20024;-67
2023/07/29 04:19:28;;;;;;;5.18;3.95;;;;;;;;;;5113055;28;20028;-67
2023/07/29 04:21:55;;;;;;;5.03;3.80;;;;;;;;;;5113064;28;20031;-67
2023/07/29 04:24:23;;;;;;;5.55;4.35;;;;;;;;;;5112985;28;20049;-67
2023/07/29 04:26:49;;;;;;;5.03;4.00;;;;;;;;;;5113159;28;20023;-67
2023/07/29 04:29:16;;;;;;;5.13;3.80;;;;;;;;;;5113082;28;20031;-68
2023/07/29 04:31:42;;;;;;;5.00;4.00;;;;;;;;;;5112946;28;20035;-68
2023/07/29 04:34:09;;;;;;;6.68;4.25;;;;;;;;;;5112838;28;20044;-68
2023/07/29 04:36:35;;;;;;;4.72;3.78;;;;;;;;;;5112804;28;20023;-68
2023/07/29 04:39:02;;;;;;;6.32;4.20;;;;;;;;;;5112745;28;20028;-68
2023/07/29 04:41:29;;;;;;;5.25;4.05;;;;;;;;;;5112739;28;20028;-68
2023/07/29 04:43:55;;;;;;;6.63;3.83;;;;;;;;;;5112699;28;20027;-67
2023/07/29 04:46:21;;;;;;;5.05;3.75;;;;;;;;;;5112316;28;20104;-68
2023/07/29 04:48:48;;;;;;;5.22;3.80;;;;;;;;;;5113020;28;20027;-68
2023/07/29 04:51:14;;;;;;;5.50;4.03;;;;;;;;;;5112679;28;20028;-68
2023/07/29 04:53:41;;;;;;;5.75;3.80;;;;;;;;;;5112546;28;20120;-68
2023/07/29 04:56:07;;;;;;;5.43;3.88;;;;;;;;;;5112547;28;20023;-68
2023/07/29 04:58:35;;;;;;;5.88;4.10;;;;;;;;;;5112874;28;20016;-67
2023/07/29 05:01:02;;;;;;;5.95;4.30;;;;;;;;;;5112280;28;20019;-68
2023/07/29 05:03:28;;;;;;;5.65;3.65;;;;;;;;;;5112541;28;20027;-68
2023/07/29 05:05:55;;;;;;;6.53;4.10;;;;;;;;;;5112472;28;20034;-68
2023/07/29 05:08:22;;;;;;;4.93;3.67;;;;;;;;;;5112246;28;20024;-68
2023/07/29 05:10:52;;;;;;;6.32;3.63;;;;;;;;;;5112239;28;20447;-68
2023/07/29 05:13:19;;;;;;;6.50;3.78;;;;;;;;;;5112774;28;20024;-67
2023/07/29 05:15:45;;;;;;;5.47;3.72;;;;;;;;;;5112367;28;20378;-67
2023/07/29 05:18:21;;;;;;;5.35;3.58;;;;;;;;;;5112371;28;20382;-67
2023/07/29 05:23:43;;;;;;;5.38;3.70;;;;;;;;;;5049476;28;20123;-68
2023/07/29 05:26:10;;;;;;;6.38;3.80;;;;;;;;;;5111101;28;20620;-68
2023/07/29 05:28:36;;;;;;;6.10;3.95;;;;;;;;;;5112342;28;20028;-68
2023/07/29 05:31:03;;;;;;;6.13;3.88;;;;;;;;;;5112210;28;20385;-68
2023/07/29 05:33:29;;;;;;;6.93;3.60;;;;;;;;;;5112141;28;20374;-68
2023/07/29 05:35:55;;;;;;;5.13;3.70;;;;;;;;;;5112249;28;20542;-68
2023/07/29 05:38:21;;;;;;;6.13;4.00;;;;;;;;;;5112172;28;20386;-68
2023/07/29 05:40:49;;;;;;;5.47;3.80;;;;;;;;;;5112079;28;20157;-68
2023/07/29 05:43:15;;;;;;;4.95;3.50;;;;;;;;;;5111974;28;20028;-68
2023/07/29 05:45:41;;;;;;;5.40;3.58;;;;;;;;;;5112253;28;20077;-68
2023/07/29 05:48:08;;;;;;;5.97;3.80;;;;;;;;;;5112021;28;20102;-68
2023/07/29 05:50:34;;;;;;;4.07;3.30;;;;;;;;;;5111981;28;20031;-68
2023/07/29 05:53:01;;;;;;;5.20;3.55;;;;;;;;;;5112068;28;20027;-68
2023/07/29 05:55:27;;;;;;;5.38;3.88;;;;;;;;;;5112167;28;20527;-68
2023/07/29 05:57:57;;;;;;;5.03;3.72;;;;;;;;;;5113643;28;20077;-67
2023/07/29 06:00:23;;;;;;;5.78;3.78;;;;;;;;;;5116003;28;20085;-68
2023/07/29 06:02:50;;;;;;;7.05;3.85;;;;;;;;;;5115817;28;20110;-68
2023/07/29 06:05:16;;;;;;;6.40;3.95;;;;;;;;;;5115680;28;20028;-68
2023/07/29 06:07:47;;;;;;;6.72;3.67;;;;;;;;;;5115827;28;20372;-68
2023/07/29 06:10:17;;;;;;;5.32;3.65;;;;;;;;;;5115323;28;20461;-68
2023/07/29 06:12:43;;;;;;;6.00;3.95;;;;;;;;;;5115658;28;20462;-67
2023/07/29 06:15:10;;;;;;;5.88;3.72;;;;;;;;;;5115603;28;20129;-67
2023/07/29 06:17:36;;;;;;;4.60;3.78;;;;;;;;;;5115587;28;20027;-68
2023/07/29 06:20:03;;;;;;;6.38;3.85;;;;;;;;;;5115395;28;20443;-68
2023/07/29 06:22:29;;;;;;;5.45;3.80;;;;;;;;;;5115464;28;20050;-68
2023/07/29 06:24:56;;;;;;;4.43;3.63;;;;;;;;;;5115381;28;20066;-68
2023/07/29 06:27:22;;;;;;;5.43;3.63;;;;;;;;;;5115299;28;20035;-68
2023/07/29 06:29:48;;;;;;;5.85;3.90;;;;;;;;;;5115479;28;20027;-68
2023/07/29 06:32:15;;;;;;;5.35;3.70;;;;;;;;;;5115225;28;20031;-67
2023/07/29 06:34:41;;;;;;;5.53;3.67;;;;;;;;;;5115407;28;20019;-67
2023/07/29 06:37:11;;;;;;;5.25;3.65;;;;;;;;;;5115283;28;20099;-67
2023/07/29 06:39:37;;;;;;;5.03;3.72;;;;;;;;;;5115365;28;20032;-68
2023/07/29 06:42:04;;;;;;;4.93;3.60;;;;;;;;;;5115107;28;20035;-67
2023/07/29 06:44:30;;;;;;;6.38;3.70;;;;;;;;;;5115054;28;20028;-68
2023/07/29 06:46:58;;;;;;;5.82;3.80;;;;;;;;;;5115012;28;20108;-67
2023/07/29 06:49:24;;;;;;;4.72;3.40;;;;;;;;;;5115062;28;20037;-68
2023/07/29 06:51:50;;;;;;;4.97;3.70;;;;;;;;;;5114710;28;20063;-67
2023/07/29 06:54:24;;;;;;;5.63;3.75;;;;;;;;;;5114792;28;20377;-68
2023/07/29 06:56:51;;;;;;;5.88;3.50;;;;;;;;;;5114863;28;20481;-68
2023/07/29 06:59:21;;;;;;;5.65;3.80;;;;;;;;;;5114689;28;20106;-68
2023/07/29 07:01:47;;;;;;;5.60;4.05;;;;;;;;;;5114665;28;20107;-68
2023/07/29 07:04:14;;;;;;;4.28;3.35;;;;;;;;;;5114583;28;20077;-68
2023/07/29 07:06:40;;;;;;;4.45;3.55;;;;;;;;;;5114517;28;20034;-68
2023/07/29 07:09:06;;;;;;;6.35;3.70;;;;;;;;;;5114395;28;20078;-68
2023/07/29 07:11:33;;;;;;;5.20;3.60;;;;;;;;;;5114180;28;20096;-68
2023/07/29 07:14:00;;;;;;;5.47;3.60;;;;;;;;;;5114594;28;20097;-68
2023/07/29 07:16:29;;;;;;;5.68;3.80;;;;;;;;;;5114465;28;20051;-68
2023/07/29 07:18:55;;;;;;;7.35;3.85;;;;;;;;;;5114394;28;20125;-68
2023/07/29 07:21:21;;;;;;;7.97;3.78;;;;;;;;;;5114192;28;20108;-68
2023/07/29 07:23:50;;;;;;;8.38;4.00;;;;;;;;;;5114289;28;20034;-68
2023/07/29 07:26:16;;;;;;;6.60;3.97;;;;;;;;;;5114197;28;20385;-67
2023/07/29 07:28:42;;;;;;;7.75;4.15;;;;;;;;;;5113980;28;20110;-69
2023/07/29 07:31:09;;;;;;;6.60;3.80;;;;;;;;;;5114050;28;20031;-68
2023/07/29 07:33:35;;;;;;;4.65;3.75;;;;;;;;;;5113987;28;20031;-68
2023/07/29 07:36:02;;;;;;;7.00;3.72;;;;;;;;;;5113890;28;20107;-68
2023/07/29 07:38:28;;;;;;;5.55;3.60;;;;;;;;;;5113879;28;20020;-68
2023/07/29 07:40:57;;;;;;;5.28;3.65;;;;;;;;;;5113912;28;20028;-68
2023/07/29 07:43:24;;;;;;;4.55;3.50;;;;;;;;;;5113565;28;20110;-68
2023/07/29 07:45:51;;;;;;;6.20;4.07;;;;;;;;;;5113783;28;20027;-68
2023/07/29 07:48:17;;;;;;;5.03;3.65;;;;;;;;;;5113770;28;20030;-68
2023/07/29 07:50:44;;;;;;;6.22;3.95;;;;;;;;;;5113513;28;20035;-68
2023/07/29 07:53:10;;;;;;;4.95;3.83;;;;;;;;;;5113524;28;20024;-68
2023/07/29 07:55:37;;;;;;;6.63;3.80;;;;;;;;;;5113546;28;20020;-68
2023/07/29 07:58:04;;;;;;;6.93;3.95;;;;;;;;;;5113485;28;20027;-69
2023/07/29 08:00:30;;;;;;;6.82;3.63;;;;;;;;;;5113477;28;20019;-69
2023/07/29 08:02:56;;;;;;;5.63;3.80;;;;;;;;;;5113400;28;20099;-68
2023/07/29 08:05:22;;;;;;;5.18;3.60;;;;;;;;;;5113516;28;20144;-68
2023/07/29 08:07:49;;;;;;;5.70;3.75;;;;;;;;;;5113392;28;20038;-68
2023/07/29 08:10:27;;;;;;;6.18;3.83;;;;;;;;;;5113102;28;20073;-68
2023/07/29 08:12:53;;;;;;;6.13;3.80;;;;;;;;;;5113370;28;20023;-68
2023/07/29 08:15:19;;;;;;;6.93;4.15;;;;;;;;;;5113215;28;20031;-68
2023/07/29 08:17:46;;;;;;;8.00;4.05;;;;;;;;;;5113022;28;20051;-68
2023/07/29 08:20:13;;;;;;;5.45;3.85;;;;;;;;;;5111452;28;20031;-68
2023/07/29 08:22:39;;;;;;;5.82;4.10;;;;;;;;;;5112981;28;20028;-68
2023/07/29 08:25:08;;;;;;;4.35;3.58;;;;;;;;;;5113135;28;20053;-68
2023/07/29 08:27:38;;;;;;;5.57;3.92;;;;;;;;;;5112962;28;20028;-68
2023/07/29 08:30:04;;;;;;;5.60;3.92;;;;;;;;;;5112828;28;20027;-68
2023/07/29 08:32:33;;;;;;;6.40;3.80;;;;;;;;;;5112660;28;20031;-68
2023/07/29 08:35:08;;;;;;;8.25;4.00;;;;;;;;;;5112878;28;20084;-68
2023/07/29 08:37:35;;;;;;;5.80;4.20;;;;;;;;;;5112616;28;20020;-68
2023/07/29 08:40:01;;;;;;;6.07;4.00;;;;;;;;;;5112809;28;20370;-68
2023/07/29 08:42:30;;;;;;;5.90;3.97;;;;;;;;;;5112790;28;20139;-68
2023/07/29 08:44:57;;;;;;;7.70;4.07;;;;;;;;;;5112789;28;20370;-68
2023/07/29 08:47:23;;;;;;;5.05;3.63;;;;;;;;;;5112642;28;20026;-68
2023/07/29 08:49:51;;;;;;;7.22;4.00;;;;;;;;;;5112884;28;20496;-68
2023/07/29 08:52:19;;;;;;;6.68;4.05;;;;;;;;;;5112627;28;20031;-68
2023/07/29 08:54:45;;;;;;;6.72;3.90;;;;;;;;;;5112813;28;20470;-68
2023/07/29 08:57:11;;;;;;;5.45;3.60;;;;;;;;;;5112773;28;20490;-68
2023/07/29 08:59:38;;;;;;;6.30;3.90;;;;;;;;;;5112540;28;20028;-68
2023/07/29 09:02:04;;;;;;;5.65;3.80;;;;;;;;;;5100581;28;20492;-68
2023/07/29 09:04:31;;;;;;;6.05;3.85;;;;;;;;;;5092114;28;20040;-68
2023/07/29 09:06:59;;;;;;;5.35;4.20;;;;;;;;;;5092167;28;20024;-68
2023/07/29 09:09:26;;;;;;;6.00;4.25;;;;;;;;;;5092248;28;20028;-68
2023/07/29 09:11:52;;;;;;;9.18;4.00;;;;;;;;;;5091714;28;20541;-68
2023/07/29 09:14:18;;;;;;;7.45;3.97;;;;;;;;;;5092216;28;20027;-68
2023/07/29 09:16:45;;;;;;;8.70;4.22;;;;;;;;;;5091994;28;20024;-68
2023/07/29 09:19:11;;;;;;;7.20;4.25;;;;;;;;;;5092074;28;20024;-68
2023/07/29 09:21:41;;;;;;;5.57;4.10;;;;;;;;;;5092157;28;20039;-68
2023/07/29 09:24:08;;;;;;;7.03;4.07;;;;;;;;;;5091940;28;20385;-68
2023/07/29 09:26:34;;;;;;;6.03;4.10;;;;;;;;;;5091972;28;20047;-67
2023/07/29 09:29:01;;;;;;;7.00;3.72;;;;;;;;;;5092078;28;20036;-68
2023/07/29 09:31:28;;;;;;;6.88;3.92;;;;;;;;;;5091995;28;20033;-67
2023/07/29 09:33:59;;;;;;;5.47;3.80;;;;;;;;;;5095319;28;20032;-68
2023/07/29 09:36:26;;;;;;;5.28;3.80;;;;;;;;;;5096134;28;20016;-68
2023/07/29 09:38:54;;;;;;;4.60;3.65;;;;;;;;;;5095857;28;20020;-68
2023/07/29 09:41:23;;;;;;;5.55;3.85;;;;;;;;;;5095887;28;20030;-67
2023/07/29 09:43:56;;;;;;;6.50;4.13;;;;;;;;;;5095754;28;20024;-68
2023/07/29 09:46:24;;;;;;;4.78;3.78;;;;;;;;;;5095914;28;20020;-67
2023/07/29 09:48:53;;;;;;;6.22;4.15;;;;;;;;;;5095553;28;20111;-68
2023/07/29 09:51:19;;;;;;;5.07;3.85;;;;;;;;;;5095716;28;20089;-68
2023/07/29 09:53:46;;;;;;;6.28;3.70;;;;;;;;;;5095927;28;20028;-68
2023/07/29 09:56:13;;;;;;;6.32;3.75;;;;;;;;;;5095773;28;20171;-67
2023/07/29 09:58:39;;;;;;;6.05;4.35;;;;;;;;;;5095966;28;20059;-68
2023/07/29 10:01:07;;;;;;;6.43;3.80;;;;;;;;;;5095529;28;20024;-68
2023/07/29 10:03:34;;;;;;;7.22;4.22;;;;;;;;;;5095413;28;20083;-68
2023/07/29 10:06:05;;;;;;;6.30;3.90;;;;;;;;;;5095623;28;20171;-68
2023/07/29 10:08:35;;;;;;;7.35;3.95;;;;;;;;;;5095174;28;20020;-68
2023/07/29 10:11:02;;;;;;;5.78;3.92;;;;;;;;;;5094939;28;20126;-68
2023/07/29 10:13:28;;;;;;;4.97;3.65;;;;;;;;;;5095412;28;20550;-68
2023/07/29 10:15:55;;;;;;;7.20;4.20;;;;;;;;;;5095278;28;20073;-68
2023/07/29 10:18:23;;;;;;;5.10;3.60;;;;;;;;;;5095175;28;20024;-68
2023/07/29 10:20:52;;;;;;;6.15;4.00;;;;;;;;;;5095275;28;20039;-68
2023/07/29 10:23:19;;;;;;;8.23;3.95;;;;;;;;;;5095070;28;20359;-68
2023/07/29 10:26:06;;;;;;;6.13;3.70;;;;;;;;;;5095098;28;20034;-68
2023/07/29 10:28:34;;;;;;;7.30;4.28;;;;;;;;;;5094864;28;20028;-68
2023/07/29 10:31:00;;;;;;;5.25;3.65;;;;;;;;;;5094784;28;20077;-68
2023/07/29 10:33:27;;;;;;;4.57;3.55;;;;;;;;;;5094760;28;20091;-68
2023/07/29 10:35:54;;;;;;;4.40;3.75;;;;;;;;;;5094692;28;20145;-68
2023/07/29 10:38:32;;;;;;;7.50;3.88;;;;;;;;;;5094724;28;20024;-68
2023/07/29 10:41:01;;;;;;;5.55;3.65;;;;;;;;;;5094683;28;20038;-68
2023/07/29 10:43:34;;;;;;;6.60;4.13;;;;;;;;;;5094252;28;20044;-68
2023/07/29 10:46:20;;;;;;;6.95;4.07;;;;;;;;;;5094375;28;20028;-68
2023/07/29 10:48:57;;;;;;;5.45;3.83;;;;;;;;;;5093591;28;20035;-68
2023/07/29 10:51:34;;;;;;;5.28;3.80;;;;;;;;;;5094340;28;20028;-68
2023/07/29 10:56:43;;;;;;;6.40;4.10;;;;;;;;;;5072040;28;20161;-68
2023/07/29 11:01:59;;;;;;;5.20;3.67;;;;;;;;;;5109661;27;20388;-68
2023/07/29 11:04:26;;;;;;;5.22;3.70;;;;;;;;;;5109690;28;20024;-69
2023/07/29 11:07:13;;;;;;;6.03;3.75;;;;;;;;;;5110045;28;20122;-68
2023/07/29 11:12:36;;;;;;;5.90;3.88;;;;;;;;;;5109824;27;20374;-68
2023/07/29 11:15:02;;;;;;;;;;;;;;;;;;5110158;28;20147;-67
2023/07/29 11:17:29;;;;;;;4.85;3.70;;;;;;;;;;5109727;28;19938;-68
2023/07/29 11:19:56;;;;;;;5.40;4.00;;;;;;;;;;5109806;28;20023;-68
2023/07/29 11:22:23;;;;;;;4.82;3.60;;;;;;;;;;5109539;28;20023;-68
2023/07/29 11:24:49;;;;;;;5.18;4.10;;;;;;;;;;5109636;28;20045;-68
2023/07/29 11:27:19;;;;;;;5.57;4.05;;;;;;;;;;5109604;28;20028;-68
2023/07/29 11:29:45;;;;;;;5.90;4.25;;;;;;;;;;5109680;28;20051;-68
2023/07/29 11:32:11;;;;;;;5.47;3.90;;;;;;;;;;5109440;28;20043;-68
2023/07/29 11:34:39;;;;;;;5.53;4.00;;;;;;;;;;5109533;28;20024;-68
2023/07/29 11:37:06;;;;;;;6.00;4.13;;;;;;;;;;5109225;28;20107;-67
2023/07/29 11:39:40;;;;;;;5.82;3.85;;;;;;;;;;5109473;28;20038;-68
2023/07/29 11:42:13;;;;;;;4.85;4.00;;;;;;;;;;5109146;28;20031;-68
2023/07/29 11:44:39;;;;;;;5.88;4.03;;;;;;;;;;5109356;28;20090;-68
2023/07/29 11:47:10;;;;;;;5.95;4.05;;;;;;;;;;5109311;28;20385;-68
2023/07/29 11:49:36;;;;;;;6.82;4.07;;;;;;;;;;5109303;28;20020;-68
2023/07/29 11:52:03;;;;;;;6.75;4.10;;;;;;;;;;5109021;28;20078;-68
2023/07/29 11:54:30;;;;;;;6.60;4.47;;;;;;;;;;5109157;28;20028;-68
2023/07/29 11:56:56;;;;;;;8.13;3.88;;;;;;;;;;5109082;28;20377;-68
2023/07/29 11:59:23;;;;;;;6.30;4.30;;;;;;;;;;5108860;28;20027;-68
2023/07/29 12:01:50;;;;;;;6.35;4.20;;;;;;;;;;5108967;28;20379;-68
2023/07/29 12:04:16;;;;;;;6.03;4.38;;;;;;;;;;5108883;28;20473;-68
2023/07/29 12:06:49;;;;;;;6.03;4.60;;;;;;;;;;5108728;28;20470;-68
2023/07/29 12:09:15;;;;;;;5.00;4.22;;;;;;;;;;5108894;28;20466;-68
2023/07/29 12:11:44;;;;;;;5.80;4.40;;;;;;;;;;5108323;28;20048;-68
2023/07/29 12:14:10;;;;;;;4.93;4.05;;;;;;;;;;5108716;28;20528;-68
2023/07/29 12:16:43;;;;;;;5.85;4.45;;;;;;;;;;5108456;28;20028;-68
2023/07/29 12:19:13;;;;;;;6.00;4.40;;;;;;;;;;5108549;28;20032;-68
2023/07/29 12:21:41;;;;;;;6.57;4.38;;;;;;;;;;5106378;28;20030;-68
2023/07/29 12:24:07;;;;;;;5.40;4.20;;;;;;;;;;5094815;28;20066;-68
2023/07/29 12:26:35;;;;;;;7.53;4.30;;;;;;;;;;5094925;28;20469;-68
2023/07/29 12:29:11;;;;;;;8.35;5.18;;;;;;;;;;5095077;28;20107;-68
2023/07/29 12:31:38;;;;;;;7.15;4.65;;;;;;;;;;5095051;28;20028;-68
2023/07/29 12:34:05;;;;;;;8.63;4.72;;;;;;;;;;5094821;28;20795;-68
2023/07/29 12:36:48;;;;;;;8.25;4.60;;;;;;;;;;5095024;28;20055;-68
2023/07/29 12:39:14;;;;;;;;;;;;;;;;;;5095084;28;20436;-68
2023/07/29 12:41:40;;;;;;;6.05;4.15;;;;;;;;;;5094535;28;19908;-68
2023/07/29 12:44:07;;;;;;;6.90;4.55;;;;;;;;;;5094409;28;20481;-68
2023/07/29 12:46:33;;;;;;;6.22;4.40;;;;;;;;;;5094448;28;20028;-68
2023/07/29 12:49:00;;;;;;;6.35;4.88;;;;;;;;;;5094272;28;20024;-68
2023/07/29 12:51:26;;;;;;;7.53;4.40;;;;;;;;;;5094382;28;20028;-68
2023/07/29 12:53:52;;;;;;;5.72;4.07;;;;;;;;;;5094357;28;20012;-68
2023/07/29 12:56:19;;;;;;;5.78;4.28;;;;;;;;;;5094367;28;20027;-68
2023/07/29 12:58:45;;;;;;;6.95;3.92;;;;;;;;;;5094303;28;20046;-68
2023/07/29 13:01:16;;;;;;;6.72;4.10;;;;;;;;;;5094120;28;20460;-68
2023/07/29 13:03:43;;;;;;;5.55;4.25;;;;;;;;;;5094163;28;20024;-68
2023/07/29 13:06:09;;;;;;;5.70;4.00;;;;;;;;;;5094256;28;20024;-68
2023/07/29 13:08:36;;;;;;;6.35;4.22;;;;;;;;;;5094378;28;20032;-68
2023/07/29 13:11:03;;;;;;;7.35;4.43;;;;;;;;;;5093603;28;20131;-68
2023/07/29 13:13:29;;;;;;;6.03;4.38;;;;;;;;;;5094004;28;20352;-68
2023/07/29 13:15:59;;;;;;;5.60;4.22;;;;;;;;;;5094060;28;20073;-68
2023/07/29 13:18:28;;;;;;;5.72;4.32;;;;;;;;;;5093987;28;20028;-68
2023/07/29 13:20:55;;;;;;;5.32;4.43;;;;;;;;;;5093907;28;20024;-68
2023/07/29 13:23:21;;;;;;;6.45;4.60;;;;;;;;;;5093664;28;20526;-68
2023/07/29 13:25:48;;;;;;;6.45;4.40;;;;;;;;;;5093709;28;20036;-68
2023/07/29 13:28:14;;;;;;;6.00;4.50;;;;;;;;;;5093711;28;20028;-68
2023/07/29 13:30:41;;;;;;;5.78;4.30;;;;;;;;;;5093498;28;20074;-68
2023/07/29 13:33:07;;;;;;;5.28;4.20;;;;;;;;;;5093533;28;20028;-68
2023/07/29 13:35:34;;;;;;;6.43;4.10;;;;;;;;;;5092661;28;20028;-68
2023/07/29 13:38:01;;;;;;;6.72;4.82;;;;;;;;;;5093474;28;20087;-68
2023/07/29 13:40:27;;;;;;;8.20;4.55;;;;;;;;;;5093427;28;20027;-68
2023/07/29 13:42:54;;;;;;;5.40;4.22;;;;;;;;;;5093450;28;20024;-68
2023/07/29 13:45:21;;;;;;;5.72;4.50;;;;;;;;;;5093230;28;20125;-68
2023/07/29 13:47:47;;;;;;;6.00;4.70;;;;;;;;;;5093575;28;20020;-68
2023/07/29 13:50:14;;;;;;;5.68;4.22;;;;;;;;;;5093053;28;20051;-68
2023/07/29 13:52:40;;;;;;;6.88;4.45;;;;;;;;;;5093314;28;20422;-68
2023/07/29 13:55:06;;;;;;;8.48;4.80;;;;;;;;;;5093297;28;20024;-69
2023/07/29 13:57:33;;;;;;;5.13;4.22;;;;;;;;;;5093145;28;20097;-68
2023/07/29 13:59:59;;;;;;;6.60;4.55;;;;;;;;;;5093198;28;20024;-68
2023/07/29 14:02:26;;;;;;;6.38;4.57;;;;;;;;;;5093101;28;20100;-68
2023/07/29 14:04:52;;;;;;;6.35;4.40;;;;;;;;;;5092985;28;20055;-68
2023/07/29 14:07:19;;;;;;;5.50;4.13;;;;;;;;;;5093006;28;20023;-68
2023/07/29 14:09:46;;;;;;;6.38;4.32;;;;;;;;;;5092973;28;20112;-68
2023/07/29 14:12:14;;;;;;;5.32;4.55;;;;;;;;;;5092459;28;20052;-68
2023/07/29 14:14:41;;;;;;;6.18;4.40;;;;;;;;;;5093036;28;20077;-68
2023/07/29 14:17:08;;;;;;;5.15;4.25;;;;;;;;;;5092763;28;20032;-68
2023/07/29 14:19:35;;;;;;;6.72;4.40;;;;;;;;;;5092649;28;20020;-68
2023/07/29 14:22:01;;;;;;;5.65;4.32;;;;;;;;;;5092694;28;20038;-68
2023/07/29 14:24:27;;;;;;;6.82;4.43;;;;;;;;;;5092569;28;20020;-68
2023/07/29 14:26:54;;;;;;;5.90;4.35;;;;;;;;;;5092737;28;20031;-68
2023/07/29 14:29:20;;;;;;;6.20;4.30;;;;;;;;;;5092618;28;20036;-68
2023/07/29 14:31:46;;;;;;;6.72;4.57;;;;;;;;;;5092570;28;20031;-68
2023/07/29 14:34:14;;;;;;;6.95;4.50;;;;;;;;;;5092607;28;20016;-68
2023/07/29 14:36:40;;;;;;;5.72;4.20;;;;;;;;;;5092325;28;20024;-68
2023/07/29 14:39:07;;;;;;;5.53;4.20;;;;;;;;;;5092573;28;20034;-68
2023/07/29 14:41:34;;;;;;;5.78;4.43;;;;;;;;;;5074325;28;20028;-68
2023/07/29 14:44:00;;;;;;;4.65;4.13;;;;;;;;;;5092491;28;20024;-69
2023/07/29 14:46:26;;;;;;;6.05;4.68;;;;;;;;;;5092163;28;20058;-68
2023/07/29 14:48:53;;;;;;;4.85;4.07;;;;;;;;;;5092405;28;20028;-68
2023/07/29 14:51:19;;;;;;;5.40;4.00;;;;;;;;;;5092293;28;20359;-68
2023/07/29 14:53:45;;;;;;;5.00;4.22;;;;;;;;;;5092172;28;20020;-68
2023/07/29 14:56:14;;;;;;;6.65;4.25;;;;;;;;;;5092343;28;20436;-68
2023/07/29 14:58:41;;;;;;;5.72;4.15;;;;;;;;;;5092106;28;20382;-68